Time;durP1;ratioP1;P1;durP2;ratioP2;P2;SDS_P1;SDS_P2;PMS_P1;PMS_P2;Temp;Humidity;BMP_temperature;BMP_pressure;BME280_temperature;BME280_humidity;BME280_pressure;Samples;Min_cycle;Max_cycle;Signal;HPM_P1;HPM_P2
2023/04/07 00:00:58;;;;;;;0.00;0.00;;;;;;;11.70;49.51;101477.19;7349311;19;20041;-62
2023/04/07 00:03:23;;;;;;;0.00;0.00;;;;;;;11.62;49.33;101477.31;7349519;19;20038;-61
2023/04/07 00:05:49;;;;;;;0.00;0.00;;;;;;;11.54;49.36;101481.78;7353599;19;20018;-62
2023/04/07 00:08:15;;;;;;;0.00;0.00;;;;;;;11.48;49.32;101488.84;7351367;19;20013;-61
2023/04/07 00:10:40;;;;;;;0.08;0.08;;;;;;;11.37;49.90;101486.38;7353056;19;20171;-61
2023/04/07 00:13:06;;;;;;;0.00;0.00;;;;;;;11.33;49.84;101484.69;7350728;19;20014;-62
2023/04/07 00:15:31;;;;;;;0.08;0.08;;;;;;;11.20;50.56;101472.66;7351659;19;20367;-62
2023/04/07 00:17:57;;;;;;;0.00;0.00;;;;;;;11.23;50.62;101488.31;7348212;19;20027;-61
2023/04/07 00:20:22;;;;;;;0.00;0.00;;;;;;;11.16;50.74;101477.94;7347955;19;20797;-62
2023/04/07 00:22:48;;;;;;;0.05;0.05;;;;;;;11.14;50.60;101479.69;7352798;19;20030;-61
2023/04/07 00:25:14;;;;;;;0.00;0.00;;;;;;;11.09;50.80;101484.09;7354947;19;20560;-62
2023/04/07 00:27:39;;;;;;;0.00;0.00;;;;;;;11.06;50.72;101481.56;7356182;19;20616;-62
2023/04/07 00:30:06;;;;;;;0.00;0.00;;;;;;;11.03;50.94;101486.81;7352780;19;20030;-61
2023/04/07 00:32:31;;;;;;;0.00;0.00;;;;;;;11.00;50.77;101486.88;7359293;19;20887;-62
2023/04/07 00:34:56;;;;;;;0.00;0.00;;;;;;;10.98;51.17;101487.75;7356489;19;20720;-62
2023/04/07 00:37:24;;;;;;;0.00;0.00;;;;;;;10.94;50.78;101481.69;7355716;19;20017;-62
2023/04/07 00:39:50;;;;;;;0.00;0.00;;;;;;;10.82;51.28;101474.88;7357473;19;20011;-61
2023/04/07 00:42:16;;;;;;;0.00;0.00;;;;;;;10.77;50.90;101467.97;7356257;19;20783;-62
2023/04/07 00:44:41;;;;;;;0.00;0.00;;;;;;;10.84;50.86;101491.38;7360189;19;20017;-61
2023/04/07 00:47:07;;;;;;;0.00;0.00;;;;;;;10.81;51.33;101469.66;7354676;19;20022;-61
2023/04/07 00:49:32;;;;;;;0.00;0.00;;;;;;;10.76;51.21;101479.31;7355755;19;20613;-62
2023/04/07 00:51:58;;;;;;;0.00;0.00;;;;;;;10.74;51.30;101478.44;7357815;19;20014;-62
2023/04/07 00:54:24;;;;;;;0.03;0.03;;;;;;;10.69;51.29;101481.09;7356709;19;20015;-62
2023/04/07 00:56:49;;;;;;;0.00;0.00;;;;;;;10.64;51.52;101481.16;7358321;19;20755;-61
2023/04/07 00:59:15;;;;;;;0.00;0.00;;;;;;;10.60;51.84;101487.31;7356753;19;20014;-61
2023/04/07 01:01:59;;;;;;;0.00;0.00;;;;;;;10.56;50.41;101477.75;7357500;19;20025;-62
2023/04/07 01:04:50;;;;;;;0.00;0.00;;;;;;;10.51;51.60;101479.56;7356793;19;20387;-61
2023/04/07 01:07:27;;;;;;;0.00;0.00;;;;;;;10.47;51.52;101480.44;7355966;19;20015;-62
2023/04/07 01:10:05;;;;;;;0.00;0.00;;;;;;;10.42;50.68;101482.25;7356988;19;20030;-62
2023/04/07 01:12:49;;;;;;;0.00;0.00;;;;;;;10.39;50.65;101477.03;7357695;19;20014;-61
2023/04/07 01:15:19;;;;;;;0.00;0.00;;;;;;;10.35;51.98;101471.00;7356399;19;20014;-62
2023/04/07 01:17:51;;;;;;;0.00;0.00;;;;;;;10.31;51.86;101473.66;7356668;19;20006;-62
2023/04/07 01:20:21;;;;;;;0.08;0.08;;;;;;;10.28;52.08;101478.88;7355828;19;20340;-61
2023/04/07 01:22:53;;;;;;;0.00;0.00;;;;;;;10.25;51.94;101473.72;7356640;19;20176;-61
2023/04/07 01:25:46;;;;;;;0.00;0.00;;;;;;;10.22;51.17;101478.91;7355106;19;20014;-62
2023/04/07 01:28:40;;;;;;;0.00;0.00;;;;;;;10.18;50.92;101472.00;7255182;19;2004275;-62
2023/04/07 01:31:08;;;;;;;0.00;0.00;;;;;;;10.13;52.23;101480.72;7254832;19;2004303;-62
2023/04/07 01:33:33;;;;;;;;;;;;;;;10.09;50.52;101471.22;7357634;19;20082;-62
2023/04/07 01:36:00;;;;;;;0.00;0.00;;;;;;;10.06;52.80;101481.66;7355367;19;20315;-62
2023/04/07 01:38:27;;;;;;;0.00;0.00;;;;;;;10.03;52.48;101476.44;7358637;19;20031;-61
2023/04/07 01:40:55;;;;;;;0.00;0.00;;;;;;;9.99;52.64;101466.06;7358252;19;20030;-62
2023/04/07 01:43:21;;;;;;;0.00;0.00;;;;;;;9.95;52.80;101480.88;7357501;19;20355;-62
2023/04/07 01:45:47;;;;;;;0.00;0.00;;;;;;;9.93;52.62;101472.19;7361619;19;20018;-62
2023/04/07 01:48:14;;;;;;;0.00;0.00;;;;;;;9.90;53.20;101472.22;7359421;19;20019;-61
2023/04/07 01:50:41;;;;;;;0.00;0.00;;;;;;;9.84;52.94;101462.72;7356650;19;20934;-62
2023/04/07 01:53:07;;;;;;;0.00;0.00;;;;;;;9.72;53.20;101451.47;7357089;19;20455;-61
2023/04/07 01:55:33;;;;;;;0.00;0.00;;;;;;;9.81;53.53;101467.94;7360844;19;20018;-62
2023/04/07 01:58:03;;;;;;;0.00;0.00;;;;;;;9.77;52.72;101471.44;7344090;19;20013;-62
2023/04/07 02:00:29;;;;;;;0.00;0.00;;;;;;;9.74;53.39;101471.47;7342224;19;20018;-62
2023/04/07 02:02:58;;;;;;;0.00;0.00;;;;;;;9.73;53.37;101468.84;7355884;19;20010;-62
2023/04/07 02:05:26;;;;;;;0.00;0.00;;;;;;;9.72;53.24;101467.13;7353478;19;20749;-61
2023/04/07 02:07:57;;;;;;;0.00;0.00;;;;;;;9.69;53.46;101468.03;7355756;19;20313;-61
2023/04/07 02:10:25;;;;;;;0.00;0.00;;;;;;;9.67;53.19;101463.69;7355774;19;20028;-61
2023/04/07 02:12:51;;;;;;;0.00;0.00;;;;;;;9.64;53.67;101466.34;7354798;19;20031;-62
2023/04/07 02:15:18;;;;;;;0.10;0.10;;;;;;;9.61;53.70;101468.06;7356301;19;20018;-62
2023/04/07 02:17:48;;;;;;;0.00;0.00;;;;;;;9.59;53.16;101464.63;7355268;19;20061;-61
2023/04/07 02:20:16;;;;;;;0.00;0.00;;;;;;;9.56;53.26;101467.22;7355074;19;20014;-62
2023/04/07 02:22:43;;;;;;;0.00;0.00;;;;;;;9.53;53.04;101466.38;7352124;19;20015;-62
2023/04/07 02:25:29;;;;;;;0.00;0.00;;;;;;;9.51;52.24;101469.00;7354553;19;20018;-62
2023/04/07 02:27:56;;;;;;;0.00;0.00;;;;;;;9.47;52.88;101466.41;7352809;19;20105;-62
2023/04/07 02:30:22;;;;;;;0.10;0.10;;;;;;;9.41;53.29;101466.47;7352118;19;20026;-62
2023/04/07 02:32:47;;;;;;;0.00;0.00;;;;;;;9.40;52.79;101470.81;7352964;19;20031;-61
2023/04/07 02:35:15;;;;;;;0.00;0.00;;;;;;;9.28;53.29;101456.13;7354960;19;20596;-62
2023/04/07 02:37:40;;;;;;;;;;;;;;;9.34;51.41;101465.63;7350915;19;20010;-62
2023/04/07 02:40:07;;;;;;;0.00;0.00;;;;;;;9.31;53.07;101465.63;7355575;19;19931;-62
2023/04/07 02:42:32;;;;;;;0.00;0.00;;;;;;;9.25;52.86;101463.06;7356248;19;20010;-61
2023/04/07 02:44:58;;;;;;;0.00;0.00;;;;;;;9.23;53.13;101472.66;7354948;19;20283;-62
2023/04/07 02:47:24;;;;;;;0.00;0.00;;;;;;;9.18;53.72;101475.28;7352511;19;20018;-62
2023/04/07 02:49:50;;;;;;;0.00;0.00;;;;;;;9.17;53.63;101467.44;7353330;19;20796;-62
2023/04/07 02:52:16;;;;;;;0.00;0.00;;;;;;;9.13;53.63;101464.00;7353586;19;20033;-62
2023/04/07 02:54:41;;;;;;;0.00;0.00;;;;;;;9.10;53.55;101467.47;7355369;19;20042;-61
2023/04/07 02:57:06;;;;;;;0.00;0.00;;;;;;;9.06;53.69;101470.97;7355565;19;20089;-62
2023/04/07 02:59:32;;;;;;;0.00;0.00;;;;;;;9.05;53.50;101474.44;7352374;19;20014;-61
2023/04/07 03:01:57;;;;;;;0.00;0.00;;;;;;;9.03;53.58;101470.13;7355272;19;20099;-62
2023/04/07 03:04:23;;;;;;;0.00;0.00;;;;;;;9.01;53.97;101470.13;7333217;19;20415;-62
2023/04/07 03:06:48;;;;;;;0.00;0.00;;;;;;;8.83;53.76;101442.41;7354917;19;20006;-62
2023/04/07 03:09:14;;;;;;;0.00;0.00;;;;;;;8.95;53.61;101462.31;7353865;19;20014;-62
2023/04/07 03:11:40;;;;;;;0.00;0.00;;;;;;;8.93;54.02;101466.69;7357826;19;20036;-62
2023/04/07 03:14:06;;;;;;;0.00;0.00;;;;;;;8.89;54.16;101457.16;7355008;19;20014;-62
2023/04/07 03:16:31;;;;;;;0.00;0.00;;;;;;;8.90;54.15;101464.09;7354851;19;20754;-61
2023/04/07 03:18:56;;;;;;;0.10;0.10;;;;;;;8.87;54.04;101458.91;7338883;19;20833;-61
2023/04/07 03:21:22;;;;;;;0.00;0.00;;;;;;;8.84;54.48;101458.91;7356824;19;20544;-63
2023/04/07 03:23:47;;;;;;;0.10;0.10;;;;;;;8.82;54.40;101460.66;7353535;19;20011;-63
2023/04/07 03:26:13;;;;;;;0.00;0.00;;;;;;;8.81;54.47;101464.09;7355415;19;20573;-63
2023/04/07 03:28:38;;;;;;;0.00;0.00;;;;;;;8.79;54.37;101460.66;7356056;19;20010;-63
2023/04/07 03:31:04;;;;;;;0.00;0.00;;;;;;;8.77;54.58;101467.63;7357017;19;20014;-63
2023/04/07 03:33:29;;;;;;;0.00;0.00;;;;;;;8.74;54.24;101465.88;7356609;19;20025;-62
2023/04/07 03:35:55;;;;;;;0.08;0.08;;;;;;;8.60;54.38;101448.56;7354744;19;20799;-62
2023/04/07 03:38:20;;;;;;;0.00;0.00;;;;;;;8.60;54.81;101448.56;7357492;19;20022;-62
2023/04/07 03:40:46;;;;;;;0.00;0.00;;;;;;;8.67;54.55;101465.88;7356106;19;20093;-62
2023/04/07 03:43:14;;;;;;;0.03;0.03;;;;;;;8.61;54.57;101458.09;7356739;19;20049;-62
2023/04/07 03:45:40;;;;;;;0.00;0.00;;;;;;;8.62;54.88;101468.53;7352412;19;20371;-62
2023/04/07 03:48:09;;;;;;;0.00;0.00;;;;;;;8.61;54.85;101465.91;7356052;19;20082;-62
2023/04/07 03:50:35;;;;;;;0.00;0.00;;;;;;;8.57;55.03;101463.31;7353280;19;20018;-62
2023/04/07 03:53:00;;;;;;;0.03;0.03;;;;;;;8.54;54.90;101465.91;7355523;19;20047;-62
2023/04/07 03:55:26;;;;;;;0.00;0.00;;;;;;;8.52;55.16;101467.69;7354301;19;20038;-62
2023/04/07 03:57:51;;;;;;;0.00;0.00;;;;;;;8.51;55.09;101465.91;7356104;19;20014;-62
2023/04/07 04:00:17;;;;;;;0.00;0.00;;;;;;;8.47;55.07;101464.22;7354176;19;20011;-62
2023/04/07 04:02:42;;;;;;;0.10;0.10;;;;;;;8.45;55.16;101455.53;7351032;19;20031;-62
2023/04/07 04:05:08;;;;;;;0.00;0.00;;;;;;;8.43;55.37;101462.47;7355055;19;20114;-61
2023/04/07 04:07:34;;;;;;;0.00;0.00;;;;;;;8.42;55.09;101459.88;7357298;19;20371;-62
2023/04/07 04:10:00;;;;;;;0.00;0.00;;;;;;;8.39;55.21;101459.88;7354086;19;20766;-62
2023/04/07 04:12:26;;;;;;;0.00;0.00;;;;;;;8.36;55.25;101458.13;7351849;19;20003;-62
2023/04/07 04:14:51;;;;;;;0.00;0.00;;;;;;;8.36;55.20;101459.84;7356646;19;20089;-62
2023/04/07 04:17:17;;;;;;;0.00;0.00;;;;;;;8.35;55.33;101466.78;7355501;19;20011;-63
2023/04/07 04:19:42;;;;;;;0.00;0.00;;;;;;;8.32;55.30;101464.19;7354601;19;20466;-62
2023/04/07 04:22:07;;;;;;;0.00;0.00;;;;;;;8.29;55.41;101459.84;7353722;19;20018;-62
2023/04/07 04:24:36;;;;;;;0.00;0.00;;;;;;;8.29;55.79;101464.19;7352917;19;20011;-62
2023/04/07 04:27:01;;;;;;;0.10;0.10;;;;;;;8.13;55.69;101439.06;7354730;19;20014;-62
2023/04/07 04:29:27;;;;;;;0.00;0.00;;;;;;;8.26;55.41;101466.78;7355132;19;20700;-62
2023/04/07 04:31:52;;;;;;;0.00;0.00;;;;;;;8.23;55.50;101464.22;7353625;19;20010;-62
2023/04/07 04:34:17;;;;;;;0.08;0.08;;;;;;;8.22;55.80;101457.28;7353496;19;20010;-62
2023/04/07 04:36:43;;;;;;;0.00;0.00;;;;;;;8.18;55.56;101461.59;7355679;19;20014;-62
2023/04/07 04:39:08;;;;;;;0.00;0.00;;;;;;;8.07;55.49;101443.41;7354003;19;20475;-62
2023/04/07 04:41:34;;;;;;;0.10;0.10;;;;;;;8.13;55.95;101452.94;7352386;19;20024;-62
2023/04/07 04:43:59;;;;;;;0.00;0.00;;;;;;;8.11;55.82;101457.28;7354843;19;20017;-62
2023/04/07 04:46:25;;;;;;;0.10;0.10;;;;;;;8.13;56.01;101462.47;7334586;19;20028;-62
2023/04/07 04:48:51;;;;;;;0.10;0.10;;;;;;;8.11;56.13;101464.19;7353322;19;20408;-62
2023/04/07 04:51:17;;;;;;;0.10;0.10;;;;;;;8.09;55.78;101463.34;7354867;19;20014;-62
2023/04/07 04:53:42;;;;;;;0.00;0.00;;;;;;;8.07;55.91;101460.75;7349747;19;22303;-62
2023/04/07 04:56:08;;;;;;;0.03;0.03;;;;;;;8.05;56.03;101455.53;7351869;19;20010;-62
2023/04/07 04:58:34;;;;;;;0.00;0.00;;;;;;;8.03;56.08;101462.47;7350534;19;20007;-62
2023/04/07 05:01:00;;;;;;;0.00;0.00;;;;;;;8.02;56.16;101460.75;7355732;19;20007;-62
2023/04/07 05:03:27;;;;;;;0.00;0.00;;;;;;;8.00;55.88;101457.25;7353298;19;20018;-62
2023/04/07 05:05:52;;;;;;;0.00;0.00;;;;;;;7.98;56.23;101461.59;7351077;19;20745;-62
2023/04/07 05:08:18;;;;;;;0.00;0.00;;;;;;;7.96;55.79;101465.97;7353595;19;20011;-62
2023/04/07 05:10:43;;;;;;;0.00;0.00;;;;;;;7.90;56.16;101452.94;7353224;19;20024;-62
2023/04/07 05:13:08;;;;;;;0.00;0.00;;;;;;;7.90;56.18;101455.53;7361472;19;20013;-62
2023/04/07 05:15:34;;;;;;;0.08;0.08;;;;;;;7.74;56.03;101435.59;7357570;19;20480;-63
2023/04/07 05:17:59;;;;;;;0.10;0.10;;;;;;;7.86;55.83;101461.63;7362281;19;20010;-62
2023/04/07 05:20:25;;;;;;;0.00;0.00;;;;;;;7.85;56.18;101472.84;7354777;19;20043;-63
2023/04/07 05:22:50;;;;;;;0.00;0.00;;;;;;;7.82;56.42;101462.47;7354211;19;20026;-62
2023/04/07 05:25:16;;;;;;;0.10;0.10;;;;;;;7.79;56.33;101467.66;7353266;19;20024;-62
2023/04/07 05:27:41;;;;;;;0.00;0.00;;;;;;;7.77;56.57;101470.25;7360931;19;20017;-62
2023/04/07 05:30:07;;;;;;;0.00;0.00;;;;;;;7.76;56.31;101472.88;7357129;19;20021;-62
2023/04/07 05:32:33;;;;;;;0.00;0.00;;;;;;;7.73;56.52;101467.66;7360774;19;20066;-62
2023/04/07 05:34:58;;;;;;;0.00;0.00;;;;;;;7.72;56.70;101471.13;7356543;19;20044;-62
2023/04/07 05:37:23;;;;;;;0.00;0.00;;;;;;;7.70;56.70;101480.63;7358788;19;20018;-62
2023/04/07 05:39:49;;;;;;;0.00;0.00;;;;;;;7.65;56.60;101480.63;7358433;19;20014;-62
2023/04/07 05:42:14;;;;;;;0.05;0.05;;;;;;;7.66;56.71;101481.53;7359866;19;20052;-63
2023/04/07 05:44:40;;;;;;;0.00;0.00;;;;;;;7.63;56.39;101481.50;7361655;19;20048;-62
2023/04/07 05:47:07;;;;;;;0.00;0.00;;;;;;;7.62;56.34;101483.25;7357729;19;20018;-62
2023/04/07 05:49:34;;;;;;;0.10;0.10;;;;;;;7.60;56.45;101481.50;7358034;19;20049;-62
2023/04/07 05:52:00;;;;;;;0.05;0.05;;;;;;;7.46;56.41;101458.97;7356116;19;20863;-62
2023/04/07 05:54:25;;;;;;;0.00;0.00;;;;;;;7.57;57.01;101478.91;7359949;19;20006;-62
2023/04/07 05:56:50;;;;;;;0.00;0.00;;;;;;;7.56;56.66;101490.16;7355788;19;20010;-63
2023/04/07 05:59:16;;;;;;;0.10;0.10;;;;;;;7.52;57.08;101479.75;7347022;19;20481;-62
2023/04/07 06:01:41;;;;;;;0.00;0.00;;;;;;;7.51;56.93;101482.34;7353724;19;20052;-62
2023/04/07 06:04:07;;;;;;;0.00;0.00;;;;;;;7.51;57.26;101491.03;7355499;19;20030;-62
2023/04/07 06:06:32;;;;;;;0.00;0.00;;;;;;;7.51;57.10;101485.81;7351021;19;20425;-62
2023/04/07 06:08:58;;;;;;;0.10;0.10;;;;;;;7.50;56.92;101484.09;7356484;19;20017;-63
2023/04/07 06:11:25;;;;;;;0.10;0.10;;;;;;;7.49;56.97;101490.13;7355487;19;20371;-63
2023/04/07 06:13:50;;;;;;;0.00;0.00;;;;;;;7.35;57.28;101470.16;7356109;19;20826;-62
2023/04/07 06:16:15;;;;;;;0.00;0.00;;;;;;;7.11;57.35;101429.41;7355065;19;20117;-63
2023/04/07 06:18:41;;;;;;;0.03;0.03;;;;;;;7.46;57.54;101486.69;7355308;19;20030;-62
2023/04/07 06:21:06;;;;;;;0.00;0.00;;;;;;;7.43;57.19;101484.91;7349458;19;20743;-62
2023/04/07 06:23:32;;;;;;;0.00;0.00;;;;;;;7.49;57.70;101490.13;7356318;19;20912;-63
2023/04/07 06:25:57;;;;;;;0.00;0.00;;;;;;;7.50;57.61;101501.38;7356734;19;20022;-62
2023/04/07 06:28:23;;;;;;;0.00;0.00;;;;;;;7.49;57.76;101495.31;7352424;19;20010;-62
2023/04/07 06:30:48;;;;;;;0.00;0.00;;;;;;;7.52;57.95;101491.88;7355955;19;20010;-63
2023/04/07 06:33:13;;;;;;;0.00;0.00;;;;;;;7.54;57.81;101492.75;7356414;19;20038;-63
2023/04/07 06:35:40;;;;;;;0.00;0.00;;;;;;;7.57;57.88;101497.97;7349163;19;20695;-62
2023/04/07 06:38:06;;;;;;;0.10;0.10;;;;;;;7.58;57.66;101498.81;7354568;19;20471;-62
2023/04/07 06:40:31;;;;;;;0.00;0.00;;;;;;;7.60;57.82;101497.09;7349334;19;20027;-62
2023/04/07 06:42:57;;;;;;;0.00;0.00;;;;;;;7.58;57.76;101493.63;7356659;19;20018;-62
2023/04/07 06:45:23;;;;;;;0.00;0.00;;;;;;;7.64;58.07;101498.84;7346719;19;20015;-62
2023/04/07 06:47:48;;;;;;;0.00;0.00;;;;;;;7.67;57.86;101504.06;7352281;19;20586;-62
2023/04/07 06:50:14;;;;;;;0.10;0.10;;;;;;;7.56;58.45;101483.22;7352486;19;20097;-62
2023/04/07 06:52:39;;;;;;;0.00;0.00;;;;;;;7.72;58.31;101498.00;7353769;19;20732;-62
2023/04/07 06:55:06;;;;;;;0.00;0.00;;;;;;;7.73;57.92;101499.72;7357276;19;20018;-62
2023/04/07 06:57:32;;;;;;;0.00;0.00;;;;;;;7.72;58.08;101485.00;7353303;19;20450;-62
2023/04/07 06:59:57;;;;;;;0.00;0.00;;;;;;;7.80;58.26;101505.78;7354889;19;20020;-62
2023/04/07 07:02:23;;;;;;;0.00;0.00;;;;;;;7.77;57.95;101491.06;7351686;19;20015;-62
2023/04/07 07:04:49;;;;;;;0.00;0.00;;;;;;;7.85;58.36;101493.66;7352155;19;20015;-62
2023/04/07 07:07:14;;;;;;;0.00;0.00;;;;;;;7.88;58.30;101504.06;7355549;19;20011;-62
2023/04/07 07:09:40;;;;;;;0.00;0.00;;;;;;;7.93;58.35;101497.16;7352870;19;20049;-62
2023/04/07 07:12:05;;;;;;;0.00;0.00;;;;;;;7.97;58.37;101496.28;7354457;19;20034;-61
2023/04/07 07:14:31;;;;;;;0.00;0.00;;;;;;;8.00;58.34;101504.06;7350338;19;20022;-62
2023/04/07 07:16:56;;;;;;;0.00;0.00;;;;;;;8.02;58.08;101501.50;7356282;19;20030;-62
2023/04/07 07:19:22;;;;;;;0.00;0.00;;;;;;;8.08;58.02;101514.50;7354525;19;20050;-62
2023/04/07 07:21:47;;;;;;;0.10;0.10;;;;;;;8.10;58.39;101509.28;7355249;19;20046;-62
2023/04/07 07:24:13;;;;;;;0.00;0.00;;;;;;;8.11;58.20;101509.31;7349762;19;20054;-61
2023/04/07 07:26:40;;;;;;;0.00;0.00;;;;;;;8.18;58.29;101512.78;7348866;19;20010;-62
2023/04/07 07:29:05;;;;;;;0.00;0.00;;;;;;;8.23;58.30;101511.03;7338191;19;20073;-62
2023/04/07 07:31:31;;;;;;;0.00;0.00;;;;;;;8.25;58.58;101512.75;7355690;19;20714;-62
2023/04/07 07:33:56;;;;;;;0.10;0.10;;;;;;;8.29;58.42;101511.91;7353018;19;20018;-62
2023/04/07 07:36:21;;;;;;;0.00;0.00;;;;;;;8.35;58.07;101511.03;7353399;19;20066;-62
2023/04/07 07:38:50;;;;;;;0.00;0.00;;;;;;;8.38;58.32;101507.59;7353854;19;20027;-62
2023/04/07 07:41:15;;;;;;;0.03;0.03;;;;;;;8.41;57.99;101508.44;7349030;19;20010;-63
2023/04/07 07:43:41;;;;;;;0.00;0.00;;;;;;;8.52;58.26;101517.13;7334542;19;20003;-62
2023/04/07 07:46:07;;;;;;;0.10;0.10;;;;;;;8.47;57.79;101498.06;7348902;19;20098;-62
2023/04/07 07:48:33;;;;;;;0.00;0.00;;;;;;;8.62;58.19;101515.38;7337455;19;20008;-62
2023/04/07 07:50:58;;;;;;;0.00;0.00;;;;;;;8.69;57.70;101521.44;7352817;19;20355;-62
2023/04/07 07:53:24;;;;;;;0.00;0.00;;;;;;;8.78;57.99;101521.44;7345560;19;20006;-62
2023/04/07 07:55:49;;;;;;;0.00;0.00;;;;;;;8.87;57.40;101516.22;7353435;19;20011;-63
2023/04/07 07:58:15;;;;;;;0.00;0.00;;;;;;;8.95;57.57;101514.44;7354338;19;20017;-62
2023/04/07 08:00:40;;;;;;;0.00;0.00;;;;;;;9.02;57.93;101505.75;7343529;19;20006;-62
2023/04/07 08:03:06;;;;;;;0.00;0.00;;;;;;;9.12;57.78;101510.88;7352187;19;20033;-61
2023/04/07 08:05:31;;;;;;;0.00;0.00;;;;;;;9.22;57.72;101513.44;7352894;19;20104;-62
2023/04/07 08:07:57;;;;;;;0.00;0.00;;;;;;;9.32;57.65;101516.88;7356475;19;20026;-62
2023/04/07 08:10:23;;;;;;;0.05;0.05;;;;;;;9.43;57.71;101502.09;7353116;19;20811;-63
2023/04/07 08:12:49;;;;;;;0.00;0.00;;;;;;;9.55;57.86;101501.16;7351576;19;20022;-63
2023/04/07 08:15:15;;;;;;;0.00;0.00;;;;;;;9.65;58.08;101492.38;7348591;19;20010;-64
2023/04/07 08:17:41;;;;;;;0.00;0.00;;;;;;;9.72;59.89;101488.00;7350768;19;20103;-62
2023/04/07 08:20:07;;;;;;;0.00;0.00;;;;;;;9.88;60.68;101487.00;7348828;19;20011;-62
2023/04/07 08:22:32;;;;;;;0.00;0.00;;;;;;;10.07;60.68;101496.44;7347389;19;20040;-62
2023/04/07 08:24:58;;;;;;;0.10;0.10;;;;;;;10.22;61.04;101499.81;7318307;19;20845;-62
2023/04/07 08:27:24;;;;;;;0.00;0.00;;;;;;;10.33;60.97;101493.63;7342271;19;20439;-61
2023/04/07 08:29:59;;;;;;;0.00;0.00;;;;;;;10.52;59.99;101496.94;7348986;19;20018;-63
2023/04/07 08:32:24;;;;;;;0.00;0.00;;;;;;;10.62;61.30;101495.97;7351822;19;20043;-62
2023/04/07 08:34:50;;;;;;;0.00;0.00;;;;;;;10.66;61.85;101483.75;7351825;19;21768;-62
2023/04/07 08:37:15;;;;;;;0.00;0.00;;;;;;;10.94;61.31;101499.97;7348629;19;20022;-62
2023/04/07 08:39:41;;;;;;;0.00;0.00;;;;;;;11.15;62.05;101504.97;7351552;19;20043;-62
2023/04/07 08:42:09;;;;;;;0.10;0.10;;;;;;;11.37;61.76;101494.25;7351692;19;20015;-62
2023/04/07 08:44:37;;;;;;;0.00;0.00;;;;;;;11.58;61.11;101491.31;7352263;19;20014;-62
2023/04/07 08:47:06;;;;;;;0.00;0.00;;;;;;;11.85;61.48;101494.44;7356593;19;20680;-62
2023/04/07 08:49:35;;;;;;;0.00;0.00;;;;;;;12.07;61.06;101497.63;7358300;19;20014;-62
2023/04/07 08:52:05;;;;;;;0.00;0.00;;;;;;;12.38;60.42;101500.56;7357327;19;20017;-62
2023/04/07 08:54:32;;;;;;;0.10;0.10;;;;;;;12.55;60.69;101490.66;7358625;19;20549;-63
2023/04/07 08:56:58;;;;;;;0.00;0.00;;;;;;;12.89;60.30;101504.00;7359310;19;20010;-63
2023/04/07 08:59:27;;;;;;;0.00;0.00;;;;;;;13.20;60.00;101498.13;7358044;19;20010;-63
2023/04/07 09:01:53;;;;;;;0.00;0.00;;;;;;;13.46;59.59;101494.97;7357729;19;20045;-63
2023/04/07 09:04:19;;;;;;;0.10;0.10;;;;;;;13.74;59.34;101500.47;7357067;19;20364;-63
2023/04/07 09:06:45;;;;;;;0.00;0.00;;;;;;;13.99;58.85;101496.38;7355972;19;20007;-62
2023/04/07 09:09:10;;;;;;;0.00;0.00;;;;;;;14.21;58.53;101496.72;7359769;19;20059;-63
2023/04/07 09:11:38;;;;;;;0.05;0.05;;;;;;;14.43;58.10;101496.16;7357470;19;20347;-62
2023/04/07 09:14:04;;;;;;;0.10;0.10;;;;;;;14.65;57.87;101497.38;7358895;19;20805;-62
2023/04/07 09:16:30;;;;;;;0.00;0.00;;;;;;;14.89;57.79;101494.94;7358206;19;20006;-63
2023/04/07 09:18:56;;;;;;;0.10;0.10;;;;;;;15.12;57.28;101489.91;7358279;19;20035;-62
2023/04/07 09:21:21;;;;;;;0.00;0.00;;;;;;;15.30;57.09;101476.19;7357858;19;20034;-63
2023/04/07 09:23:47;;;;;;;0.05;0.05;;;;;;;15.62;56.08;101482.28;7358132;19;20014;-63
2023/04/07 09:26:27;;;;;;;0.10;0.10;;;;;;;16.04;55.52;101495.00;7357448;19;20014;-63
2023/04/07 09:29:00;;;;;;;0.10;0.10;;;;;;;16.16;54.58;101496.38;7356470;19;20043;-63
2023/04/07 09:31:53;;;;;;;0.20;0.20;;;;;;;16.43;54.55;101490.19;7355373;19;20789;-63
2023/04/07 09:34:30;;;;;;;0.10;0.10;;;;;;;16.63;53.96;101488.63;7254853;19;2004364;-63
2023/04/07 09:36:56;;;;;;;0.10;0.10;;;;;;;16.79;52.82;101503.88;7352126;19;20866;-63
2023/04/07 09:39:22;;;;;;;0.10;0.10;;;;;;;17.01;52.34;101492.53;7356664;19;22357;-63
2023/04/07 09:41:48;;;;;;;0.10;0.10;;;;;;;17.09;51.58;101472.03;7353120;19;20023;-63
2023/04/07 09:44:13;;;;;;;0.10;0.10;;;;;;;17.43;51.11;101491.84;7356832;19;20027;-63
2023/04/07 09:46:53;;;;;;;0.00;0.00;;;;;;;17.75;51.88;101488.84;7356980;19;20007;-63
2023/04/07 09:49:20;;;;;;;0.10;0.10;;;;;;;17.87;49.79;101487.47;7351163;19;20360;-63
2023/04/07 09:52:11;;;;;;;0.10;0.10;;;;;;;18.20;52.11;101495.81;7356605;19;20042;-63
2023/04/07 09:54:40;;;;;;;0.10;0.10;;;;;;;18.25;49.02;101488.56;7354465;19;20014;-63
2023/04/07 09:57:10;;;;;;;0.10;0.10;;;;;;;18.38;49.38;101497.66;7357214;19;20011;-63
2023/04/07 09:59:38;;;;;;;0.03;0.03;;;;;;;18.30;48.74;101477.78;7349247;19;20474;-63
2023/04/07 10:02:05;;;;;;;0.10;0.10;;;;;;;18.33;48.15;101486.44;7355555;19;20557;-63
2023/04/07 10:04:31;;;;;;;0.10;0.10;;;;;;;18.20;47.85;101485.25;7353806;19;20143;-63
2023/04/07 10:06:58;;;;;;;0.10;0.10;;;;;;;18.24;47.99;101491.25;7355561;19;20082;-63
2023/04/07 10:09:25;;;;;;;0.00;0.00;;;;;;;18.20;48.08;101495.81;7353383;19;20052;-62
2023/04/07 10:11:52;;;;;;;0.10;0.10;;;;;;;18.10;47.13;101474.19;7351654;19;20038;-64
2023/04/07 10:14:20;;;;;;;0.10;0.10;;;;;;;18.28;47.46;101483.13;7353369;19;20030;-64
2023/04/07 10:16:46;;;;;;;0.20;0.20;;;;;;;18.37;47.32;101492.47;7353236;19;20019;-63
2023/04/07 10:19:13;;;;;;;0.13;0.13;;;;;;;18.50;47.29;101490.13;7353465;19;20039;-63
2023/04/07 10:21:43;;;;;;;0.10;0.10;;;;;;;18.64;47.61;101485.09;7354945;19;20023;-64
2023/04/07 10:24:34;;;;;;;0.10;0.10;;;;;;;18.91;48.71;101483.94;7350313;19;20011;-64
2023/04/07 10:27:10;;;;;;;0.10;0.10;;;;;;;19.09;45.92;101491.97;7352820;19;20014;-64
2023/04/07 10:29:42;;;;;;;0.10;0.10;;;;;;;19.33;46.33;101484.69;7353484;19;20011;-64
2023/04/07 10:32:07;;;;;;;0.10;0.10;;;;;;;19.42;44.68;101490.41;7351704;19;20015;-64
2023/04/07 10:34:56;;;;;;;0.10;0.10;;;;;;;19.69;47.61;101488.25;7356700;19;20026;-64
2023/04/07 10:37:23;;;;;;;0.10;0.10;;;;;;;19.75;44.70;101481.78;7254456;19;2004363;-64
2023/04/07 10:39:50;;;;;;;0.10;0.10;;;;;;;19.90;44.39;101480.19;7351960;19;20750;-63
2023/04/07 10:42:40;;;;;;;0.08;0.08;;;;;;;20.18;46.93;101487.66;7356135;19;20059;-64
2023/04/07 10:45:08;;;;;;;0.10;0.10;;;;;;;20.29;43.90;101492.41;7253640;19;2004548;-64
2023/04/07 10:47:54;;;;;;;0.10;0.10;;;;;;;20.41;43.42;101487.31;7352393;19;20031;-64
2023/04/07 10:50:21;;;;;;;0.10;0.10;;;;;;;20.59;43.54;101482.03;7350416;19;20018;-64
2023/04/07 10:52:48;;;;;;;0.10;0.10;;;;;;;20.76;43.13;101487.31;7346220;19;20002;-64
2023/04/07 10:55:32;;;;;;;;;;;;;;;21.12;46.46;101495.09;7354699;19;20010;-64
2023/04/07 10:58:13;;;;;;;0.10;0.10;;;;;;;21.31;44.00;101483.53;7349083;19;20025;-65
2023/04/07 11:00:38;;;;;;;0.10;0.10;;;;;;;21.34;42.24;101473.59;7351315;19;20542;-63
2023/04/07 11:03:12;;;;;;;0.10;0.10;;;;;;;21.55;43.23;101470.69;7352439;19;20557;-63
2023/04/07 11:05:41;;;;;;;0.10;0.10;;;;;;;21.65;41.56;101474.53;7353560;19;20015;-63
2023/04/07 11:08:07;;;;;;;0.10;0.10;;;;;;;21.76;40.00;101467.66;7348459;19;20018;-64
2023/04/07 11:10:34;;;;;;;0.10;0.10;;;;;;;21.88;40.26;101474.06;7351113;19;20587;-63
2023/04/07 11:13:05;;;;;;;0.00;0.00;;;;;;;22.01;39.90;101469.75;7350940;19;20656;-64
2023/04/07 11:15:32;;;;;;;0.10;0.10;;;;;;;22.03;39.84;101451.88;7350772;19;20027;-63
2023/04/07 11:18:17;;;;;;;0.10;0.10;;;;;;;22.07;42.39;101420.66;7349757;19;21191;-63
2023/04/07 11:20:53;;;;;;;0.10;0.10;;;;;;;22.48;41.43;101479.41;7346321;19;20013;-64
2023/04/07 11:23:24;;;;;;;0.13;0.13;;;;;;;22.66;40.85;101477.44;7354719;19;20031;-63
2023/04/07 11:25:51;;;;;;;0.10;0.10;;;;;;;22.77;38.69;101468.78;7354801;19;20017;-64
2023/04/07 11:28:16;;;;;;;;;;;;;;;23.08;41.94;101477.56;7354302;19;20106;-63
2023/04/07 11:30:50;;;;;;;0.10;0.10;;;;;;;23.13;39.52;101475.47;7354873;19;19981;-64
2023/04/07 11:33:17;;;;;;;0.10;0.10;;;;;;;23.23;38.41;101476.59;7354952;19;20011;-63